createdAt,value
2018-07-07T00:01:16.085Z,101730.45
2018-07-07T00:03:42.996Z,101719.55
2018-07-07T00:06:09.932Z,101729.11
2018-07-07T00:08:36.849Z,101729.22
2018-07-07T00:11:03.780Z,101740.70
2018-07-07T00:13:30.708Z,101736.27
2018-07-07T00:15:57.638Z,101733.51
2018-07-07T00:18:24.580Z,101736.27
2018-07-07T00:20:51.545Z,101738.48
2018-07-07T00:23:18.449Z,101738.52
2018-07-07T00:25:45.360Z,101730.75
2018-07-07T00:28:12.300Z,101737.39
2018-07-07T00:30:39.240Z,101739.67
2018-07-07T00:33:06.171Z,101741.84
2018-07-07T00:35:33.087Z,101746.69
2018-07-07T00:37:59.992Z,101744.44
2018-07-07T00:40:26.932Z,101741.84
2018-07-07T00:42:53.875Z,101738.14
2018-07-07T00:45:20.789Z,101742.77
2018-07-07T00:47:47.719Z,101740.08
2018-07-07T00:50:14.645Z,101738.14
2018-07-07T00:52:41.556Z,101735.52
2018-07-07T00:55:08.474Z,101751.59
2018-07-07T00:57:35.417Z,101742.56
2018-07-07T01:00:02.408Z,101747.06
2018-07-07T01:02:29.339Z,101735.96
2018-07-07T01:04:56.280Z,101737.63
2018-07-07T01:07:23.652Z,101735.79
2018-07-07T01:09:50.664Z,101740.77
2018-07-07T01:12:17.656Z,101729.59
2018-07-07T01:14:44.609Z,101731.84
2018-07-07T01:17:11.537Z,101727.89
2018-07-07T01:19:38.714Z,101730.07
2018-07-07T01:22:07.638Z,101730.07
2018-07-07T01:24:34.552Z,101730.92
2018-07-07T01:27:01.489Z,101733.51
2018-07-07T01:29:29.009Z,101735.25
2018-07-07T01:31:55.943Z,101731.30
2018-07-07T01:34:22.872Z,101731.39
2018-07-07T01:36:53.520Z,101729.59
2018-07-07T01:39:21.473Z,101731.84
2018-07-07T01:41:48.947Z,101733.17
2018-07-07T01:44:16.274Z,101731.39
2018-07-07T01:46:43.285Z,101736.70
2018-07-07T01:49:10.352Z,101738.52
2018-07-07T01:51:37.306Z,101738.14
2018-07-07T01:54:04.390Z,101740.25
2018-07-07T01:56:31.336Z,101739.44
2018-07-07T01:58:59.549Z,101739.88
2018-07-07T02:01:26.730Z,101742.94
2018-07-07T02:03:53.670Z,101736.84
2018-07-07T02:06:20.621Z,101738.04
2018-07-07T02:08:47.578Z,101724.58
2018-07-07T02:11:15.505Z,101734.33
2018-07-07T02:13:42.460Z,101734.77
2018-07-07T02:16:09.384Z,101729.93
2018-07-07T02:18:36.325Z,101737.69
2018-07-07T02:21:03.300Z,101736.02
2018-07-07T02:23:30.277Z,101736.91
2018-07-07T02:25:57.222Z,101746.58
2018-07-07T02:28:24.149Z,101747.40
2018-07-07T02:30:51.090Z,101743.92
2018-07-07T02:33:18.045Z,101747.50
2018-07-07T02:35:44.973Z,101746.62
2018-07-07T02:38:11.902Z,101751.42
2018-07-07T02:40:38.846Z,101749.69
2018-07-07T02:43:05.777Z,101746.66
2018-07-07T02:45:32.726Z,101741.92
2018-07-07T02:47:59.678Z,101749.38
2018-07-07T02:50:26.617Z,101745.94
2018-07-07T02:52:53.537Z,101746.86
2018-07-07T02:55:20.460Z,101744.23
2018-07-07T02:57:47.407Z,101747.81
2018-07-07T03:00:14.318Z,101750.53
2018-07-07T03:02:41.262Z,101744.38
2018-07-07T03:05:08.175Z,101748.42
2018-07-07T03:07:35.100Z,101748.42
2018-07-07T03:10:02.048Z,101750.60
2018-07-07T03:12:28.981Z,101744.09
2018-07-07T03:14:55.902Z,101752.85
2018-07-07T03:17:22.835Z,101756.87
2018-07-07T03:19:50.051Z,101760.38
2018-07-07T03:22:17.002Z,101756.02
2018-07-07T03:24:43.933Z,101754.28
2018-07-07T03:27:10.844Z,101767.59
2018-07-07T03:29:37.789Z,101769.39
2018-07-07T03:32:04.899Z,101771.16
2018-07-07T03:34:31.824Z,101772.55
2018-07-07T03:36:58.745Z,101774.77
2018-07-07T03:39:25.659Z,101777.77
2018-07-07T03:41:52.559Z,101771.51
2018-07-07T03:44:19.500Z,101773.22
2018-07-07T03:46:46.407Z,101783.36
2018-07-07T03:49:13.333Z,101780.23
2018-07-07T03:51:40.231Z,101774.44
2018-07-07T03:54:07.188Z,101766.41
2018-07-07T03:56:34.094Z,101765.94
2018-07-07T03:59:01.013Z,101778.20
2018-07-07T04:01:27.945Z,101771.89
2018-07-07T04:03:54.855Z,101763.04
2018-07-07T04:06:21.753Z,101770.50
2018-07-07T04:08:48.655Z,101768.63
2018-07-07T04:11:15.556Z,101761.98
2018-07-07T04:13:42.471Z,101777.23
2018-07-07T04:16:09.361Z,101776.25
2018-07-07T04:18:36.264Z,101777.06
2018-07-07T04:21:04.331Z,101774.70
2018-07-07T04:23:31.818Z,101769.24
2018-07-07T04:25:58.926Z,101773.13
2018-07-07T04:28:25.944Z,101770.31
2018-07-07T04:30:52.884Z,101780.02
2018-07-07T04:33:19.840Z,101778.66
2018-07-07T04:35:47.445Z,101771.82
2018-07-07T04:38:14.372Z,101781.46
2018-07-07T04:40:41.280Z,101778.72
2018-07-07T04:43:08.208Z,101771.44
2018-07-07T04:45:35.173Z,101773.14
2018-07-07T04:48:02.099Z,101768.81
2018-07-07T04:50:29.029Z,101773.50
2018-07-07T04:52:55.931Z,101775.12
2018-07-07T04:55:22.848Z,101775.08
2018-07-07T04:57:49.765Z,101774.80
2018-07-07T05:00:16.704Z,101771.12
2018-07-07T05:02:43.604Z,101760.44
2018-07-07T05:05:10.522Z,101767.69
2018-07-07T05:07:37.436Z,101775.71
2018-07-07T05:10:04.377Z,101761.35
2018-07-07T05:12:31.280Z,101767.92
2018-07-07T05:14:58.192Z,101770.59
2018-07-07T05:17:25.116Z,101764.09
2018-07-07T05:19:52.050Z,101764.77
2018-07-07T05:22:18.970Z,101773.08
2018-07-07T05:24:46.179Z,101764.22
2018-07-07T05:27:13.088Z,101772.97
2018-07-07T05:29:40.010Z,101766.17
2018-07-07T05:32:06.953Z,101780.47
2018-07-07T05:34:33.869Z,101776.56
2018-07-07T05:37:00.792Z,101784.78
2018-07-07T05:39:27.729Z,101777.84
2018-07-07T05:41:54.651Z,101776.70
2018-07-07T05:44:21.570Z,101779.84
2018-07-07T05:46:48.496Z,101781.48
2018-07-07T05:49:15.421Z,101782.28
2018-07-07T05:51:42.324Z,101783.92
2018-07-07T05:54:09.265Z,101789.27
2018-07-07T05:56:36.177Z,101790.55
2018-07-07T05:59:03.250Z,101790.31
2018-07-07T06:01:30.162Z,101792.23
2018-07-07T06:03:57.064Z,101779.83
2018-07-07T06:06:23.959Z,101789.81
2018-07-07T06:08:50.852Z,101780.69
2018-07-07T06:11:17.761Z,101786.86
2018-07-07T06:13:44.688Z,101776.03
2018-07-07T06:16:11.607Z,101775.64
2018-07-07T06:18:38.502Z,101778.25
2018-07-07T06:21:05.433Z,101780.67
2018-07-07T06:23:32.383Z,101766.82
2018-07-07T06:25:59.312Z,101773.06
2018-07-07T06:28:26.204Z,101770.70
2018-07-07T06:30:53.118Z,101769.64
2018-07-07T06:33:20.013Z,101770.91
2018-07-07T06:35:46.912Z,101770.44
2018-07-07T06:38:13.796Z,101778.34
2018-07-07T06:40:40.715Z,101778.09
2018-07-07T06:43:07.608Z,101781.46
2018-07-07T06:45:34.545Z,101780.16
2018-07-07T06:48:01.412Z,101775.98
2018-07-07T06:50:28.330Z,101785.58
2018-07-07T06:52:55.228Z,101786.03
2018-07-07T06:55:22.149Z,101786.97
2018-07-07T06:57:49.044Z,101792.54
2018-07-07T07:00:15.949Z,101798.28
2018-07-07T07:02:42.856Z,101796.95
2018-07-07T07:05:09.774Z,101795.25
2018-07-07T07:07:36.681Z,101810.19
2018-07-07T07:10:03.678Z,101804.33
2018-07-07T07:12:30.630Z,101803.78
2018-07-07T07:14:57.546Z,101800.39
2018-07-07T07:17:24.445Z,101796.09
2018-07-07T07:19:51.379Z,101808.97
2018-07-07T07:22:18.263Z,101805.03
2018-07-07T07:24:45.157Z,101823.76
2018-07-07T07:27:12.075Z,101817.20
2018-07-07T07:29:39.071Z,101814.20
2018-07-07T07:32:05.977Z,101814.05
2018-07-07T07:34:32.902Z,101812.70
2018-07-07T07:36:59.829Z,101811.41
2018-07-07T07:39:26.748Z,101812.34
2018-07-07T07:41:53.676Z,101819.51
2018-07-07T07:44:20.571Z,101819.42
2018-07-07T07:46:47.485Z,101822.83
2018-07-07T07:49:14.393Z,101818.91
2018-07-07T07:51:41.337Z,101813.20
2018-07-07T07:54:08.228Z,101809.89
2018-07-07T07:56:35.149Z,101823.64
2018-07-07T07:59:02.122Z,101812.31
2018-07-07T08:01:28.977Z,101823.77
2018-07-07T08:03:56.380Z,101820.66
2018-07-07T08:06:23.321Z,101824.11
2018-07-07T08:08:50.232Z,101807.16
2018-07-07T08:11:17.153Z,101797.25
2018-07-07T08:13:44.046Z,101804.05
2018-07-07T08:16:10.985Z,101809.83
2018-07-07T08:18:37.921Z,101812.85
2018-07-07T08:21:04.874Z,101813.55
2018-07-07T08:23:31.774Z,101822.30
2018-07-07T08:25:58.716Z,101802.19
2018-07-07T08:28:25.744Z,101807.42
2018-07-07T08:30:53.017Z,101802.08
2018-07-07T08:33:19.931Z,101804.69
2018-07-07T08:35:46.853Z,101810.98
2018-07-07T08:38:16.609Z,101813.58
2018-07-07T08:40:43.848Z,101806.48
2018-07-07T08:43:12.552Z,101818.61
2018-07-07T08:45:39.560Z,101822.23
2018-07-07T08:48:06.518Z,101826.95
2018-07-07T08:50:33.425Z,101828.80
2018-07-07T08:53:00.333Z,101820.70
2018-07-07T08:55:27.235Z,101820.86
2018-07-07T08:57:54.236Z,101816.17
2018-07-07T09:00:21.136Z,101818.56
2018-07-07T09:02:48.033Z,101814.85
2018-07-07T09:05:14.959Z,101816.48
2018-07-07T09:07:41.943Z,101823.15
2018-07-07T09:10:08.825Z,101809.73
2018-07-07T09:12:35.733Z,101819.08
2018-07-07T09:15:02.656Z,101810.02
2018-07-07T09:17:29.633Z,101801.01
2018-07-07T09:19:56.533Z,101811.61
2018-07-07T09:22:23.445Z,101808.27
2018-07-07T09:24:50.356Z,101813.33
2018-07-07T09:27:17.268Z,101808.55
2018-07-07T09:29:44.151Z,101814.56
2018-07-07T09:32:11.088Z,101813.30
2018-07-07T09:34:37.984Z,101807.12
2018-07-07T09:37:04.911Z,101822.84
2018-07-07T09:39:31.815Z,101801.52
2018-07-07T09:41:58.744Z,101803.67
2018-07-07T09:44:25.701Z,101812.48
2018-07-07T09:46:52.648Z,101811.28
2018-07-07T09:49:19.673Z,101826.80
2018-07-07T09:51:47.379Z,101814.73
2018-07-07T09:54:14.291Z,101817.92
2018-07-07T09:56:41.212Z,101818.02
2018-07-07T09:59:08.204Z,101816.83
2018-07-07T10:01:35.142Z,101821.42
2018-07-07T10:04:02.050Z,101820.25
2018-07-07T10:06:29.541Z,101809.81
2018-07-07T10:08:56.456Z,101813.47
2018-07-07T10:11:23.642Z,101818.20
2018-07-07T10:13:50.931Z,101816.51
2018-07-07T10:16:17.814Z,101827.22
2018-07-07T10:18:44.740Z,101829.26
2018-07-07T10:21:11.661Z,101811.44
2018-07-07T10:23:38.587Z,101820.08
2018-07-07T10:26:05.657Z,101819.86
2018-07-07T10:28:33.060Z,101812.67
2018-07-07T10:30:59.949Z,101815.16
2018-07-07T10:33:26.879Z,101822.21
2018-07-07T10:35:53.805Z,101824.03
2018-07-07T10:38:20.790Z,101812.50
2018-07-07T10:40:47.656Z,101809.97
2018-07-07T10:43:14.571Z,101817.14
2018-07-07T10:45:41.554Z,101825.14
2018-07-07T10:48:08.408Z,101826.24
2018-07-07T10:50:35.775Z,101830.27
2018-07-07T10:53:02.740Z,101832.17
2018-07-07T10:55:29.704Z,101827.38
2018-07-07T10:57:56.581Z,101822.91
2018-07-07T11:00:23.524Z,101824.89
2018-07-07T11:02:55.402Z,101831.82
2018-07-07T11:05:24.115Z,101829.93
2018-07-07T11:07:52.070Z,101826.27
2018-07-07T11:10:18.972Z,101829.16
2018-07-07T11:12:45.882Z,101822.23
2018-07-07T11:15:12.789Z,101828.14
2018-07-07T11:17:39.708Z,101827.42
2018-07-07T11:20:06.700Z,101827.95
2018-07-07T11:22:33.785Z,101827.38
2018-07-07T11:25:00.664Z,101823.92
2018-07-07T11:27:27.574Z,101829.91
2018-07-07T11:29:54.502Z,101821.30
2018-07-07T11:32:21.425Z,101818.92
2018-07-07T11:34:48.352Z,101819.28
2018-07-07T11:37:15.256Z,101816.94
2018-07-07T11:39:42.193Z,101820.77
2018-07-07T11:42:09.097Z,101822.19
2018-07-07T11:44:36.004Z,101816.95
2018-07-07T11:47:02.950Z,101819.72
2018-07-07T11:49:29.867Z,101824.52
2018-07-07T11:51:56.776Z,101827.31
2018-07-07T11:54:23.691Z,101824.69
2018-07-07T11:56:50.688Z,101836.87
2018-07-07T11:59:17.630Z,101827.49
2018-07-07T12:01:44.584Z,101816.94
2018-07-07T12:04:11.482Z,101827.38
2018-07-07T12:06:38.458Z,101826.10
2018-07-07T12:09:05.400Z,101834.84
2018-07-07T12:11:32.426Z,101843.44
2018-07-07T12:13:59.296Z,101832.23
2018-07-07T12:16:26.192Z,101827.55
2018-07-07T12:18:53.093Z,101830.59
2018-07-07T12:21:20.022Z,101826.16
2018-07-07T12:23:46.937Z,101821.17
2018-07-07T12:26:13.843Z,101822.81
2018-07-07T12:28:40.757Z,101822.61
2018-07-07T12:31:07.700Z,101832.12
2018-07-07T12:33:34.628Z,101831.74
2018-07-07T12:36:01.610Z,101824.52
2018-07-07T12:38:28.554Z,101818.04
2018-07-07T12:40:55.471Z,101830.58
2018-07-07T12:43:22.383Z,101825.31
2018-07-07T12:45:49.323Z,101831.06
2018-07-07T12:48:16.305Z,101830.42
2018-07-07T12:50:43.214Z,101831.07
2018-07-07T12:53:10.118Z,101823.08
2018-07-07T12:55:37.092Z,101825.27
2018-07-07T12:58:04.280Z,101821.83
2018-07-07T13:00:31.214Z,101826.58
2018-07-07T13:02:58.130Z,101829.84
2018-07-07T13:05:25.081Z,101831.44
2018-07-07T13:07:51.986Z,101832.70
2018-07-07T13:10:18.883Z,101839.44
2018-07-07T13:12:45.812Z,101837.30
2018-07-07T13:15:12.838Z,101831.69
2018-07-07T13:17:39.645Z,101837.84
2018-07-07T13:20:06.601Z,101829.43
2018-07-07T13:22:33.490Z,101843.25
2018-07-07T13:25:00.404Z,101831.12
2018-07-07T13:27:27.352Z,101830.06
2018-07-07T13:29:54.269Z,101838.39
2018-07-07T13:32:21.200Z,101828.17
2018-07-07T13:34:48.129Z,101831.84
2018-07-07T13:37:15.044Z,101832.77
2018-07-07T13:39:42.697Z,101830.02
2018-07-07T13:42:10.720Z,101840.33
2018-07-07T13:44:37.632Z,101838.22
2018-07-07T13:47:05.235Z,101838.17
2018-07-07T13:49:32.139Z,101837.75
2018-07-07T13:51:59.071Z,101847.91
2018-07-07T13:54:26.034Z,101836.45
2018-07-07T13:56:52.968Z,101840.61
2018-07-07T13:59:19.869Z,101842.35
2018-07-07T14:01:46.767Z,101839.70
2018-07-07T14:04:13.749Z,101846.72
2018-07-07T14:06:40.681Z,101827.05
2018-07-07T14:09:08.056Z,101851.73
2018-07-07T14:11:34.948Z,101847.06
2018-07-07T14:14:01.854Z,101851.83
2018-07-07T14:16:28.744Z,101855.41
2018-07-07T14:18:55.648Z,101856.85
2018-07-07T14:21:22.572Z,101858.96
2018-07-07T14:23:49.482Z,101868.25
2018-07-07T14:26:16.410Z,101865.00
2018-07-07T14:28:43.341Z,101864.98
2018-07-07T14:31:10.264Z,101857.39
2018-07-07T14:33:37.172Z,101860.80
2018-07-07T14:36:04.155Z,101859.50
2018-07-07T14:38:37.476Z,101856.53
2018-07-07T14:41:12.897Z,101855.73
2018-07-07T14:43:47.747Z,101864.13
2018-07-07T14:46:14.643Z,101861.10
2018-07-07T14:48:41.548Z,101860.25
2018-07-07T14:51:08.526Z,101865.02
2018-07-07T14:53:35.409Z,101865.46
2018-07-07T14:56:02.325Z,101856.76
2018-07-07T14:58:29.245Z,101864.61
2018-07-07T15:00:56.157Z,101859.14
2018-07-07T15:03:23.787Z,101853.69
2018-07-07T15:05:50.701Z,101851.39
2018-07-07T15:08:17.596Z,101857.16
2018-07-07T15:10:44.538Z,101852.34
2018-07-07T15:13:11.443Z,101859.61
2018-07-07T15:15:38.463Z,101862.23
2018-07-07T15:18:05.367Z,101854.92
2018-07-07T15:20:32.269Z,101854.63
2018-07-07T15:22:59.210Z,101864.67
2018-07-07T15:25:26.136Z,101852.78
2018-07-07T15:27:53.044Z,101849.48
2018-07-07T15:30:19.932Z,101848.23
2018-07-07T15:32:46.869Z,101855.73
2018-07-07T15:35:13.765Z,101846.78
2018-07-07T15:37:40.688Z,101865.61
2018-07-07T15:40:07.684Z,101850.43
2018-07-07T15:42:34.578Z,101855.73
2018-07-07T15:45:01.503Z,101848.36
2018-07-07T15:47:28.416Z,101854.03
2018-07-07T15:49:55.403Z,101857.69
2018-07-07T15:52:22.309Z,101851.13
2018-07-07T15:54:49.236Z,101860.23
2018-07-07T15:57:16.159Z,101858.13
2018-07-07T15:59:43.063Z,101858.42
2018-07-07T16:02:09.997Z,101855.81
2018-07-07T16:04:36.945Z,101866.39
2018-07-07T16:07:04.033Z,101855.42
2018-07-07T16:09:30.944Z,101854.56
2018-07-07T16:11:57.840Z,101858.42
2018-07-07T16:14:24.748Z,101863.04
2018-07-07T16:16:51.676Z,101857.68
2018-07-07T16:19:18.572Z,101859.88
2018-07-07T16:21:45.564Z,101854.80
2018-07-07T16:24:12.443Z,101853.72
2018-07-07T16:26:39.353Z,101847.54
2018-07-07T16:29:06.268Z,101841.73
2018-07-07T16:31:33.221Z,101853.95
2018-07-07T16:34:00.453Z,101846.86
2018-07-07T16:36:27.387Z,101852.66
2018-07-07T16:38:54.321Z,101837.91
2018-07-07T16:41:21.267Z,101843.28
2018-07-07T16:43:48.208Z,101836.62
2018-07-07T16:46:15.191Z,101850.40
2018-07-07T16:48:42.146Z,101849.70
2018-07-07T16:51:09.311Z,101843.30
2018-07-07T16:53:36.232Z,101841.01
2018-07-07T16:56:03.188Z,101852.27
2018-07-07T16:58:30.406Z,101845.08
2018-07-07T17:00:57.743Z,101838.61
2018-07-07T17:03:24.692Z,101832.76
2018-07-07T17:05:51.598Z,101843.19
2018-07-07T17:08:18.557Z,101834.02
2018-07-07T17:10:46.271Z,101832.98
2018-07-07T17:13:13.538Z,101836.50
2018-07-07T17:15:40.629Z,101840.73
2018-07-07T17:18:07.567Z,101845.62
2018-07-07T17:20:34.527Z,101837.42
2018-07-07T17:23:01.465Z,101836.69
2018-07-07T17:25:28.387Z,101841.72
2018-07-07T17:27:55.372Z,101833.15
2018-07-07T17:30:22.399Z,101832.88
2018-07-07T17:32:49.389Z,101839.12
2018-07-07T17:35:16.336Z,101833.03
2018-07-07T17:37:43.284Z,101837.84
2018-07-07T17:40:10.425Z,101835.96
2018-07-07T17:42:37.340Z,101838.53
2018-07-07T17:45:04.565Z,101828.55
2018-07-07T17:47:31.577Z,101834.95
2018-07-07T17:50:00.614Z,101831.81
2018-07-07T17:52:27.943Z,101837.17
2018-07-07T17:54:54.864Z,101838.70
2018-07-07T17:57:21.796Z,101847.81
2018-07-07T17:59:48.728Z,101845.01
2018-07-07T18:02:15.688Z,101838.83
2018-07-07T18:04:43.489Z,101848.27
2018-07-07T18:07:10.412Z,101846.17
2018-07-07T18:09:37.341Z,101851.96
2018-07-07T18:12:04.684Z,101850.83
2018-07-07T18:14:31.610Z,101847.61
2018-07-07T18:16:58.521Z,101849.34
2018-07-07T18:19:25.455Z,101855.41
2018-07-07T18:21:52.556Z,101859.97
2018-07-07T18:24:19.494Z,101851.20
2018-07-07T18:26:46.403Z,101850.27
2018-07-07T18:29:13.316Z,101853.52
2018-07-07T18:31:40.243Z,101855.31
2018-07-07T18:34:07.160Z,101861.52
2018-07-07T18:36:34.066Z,101870.44
2018-07-07T18:39:00.978Z,101867.55
2018-07-07T18:41:27.884Z,101863.41
2018-07-07T18:43:54.814Z,101866.20
2018-07-07T18:46:21.728Z,101861.66
2018-07-07T18:48:53.828Z,101863.91
2018-07-07T18:51:21.115Z,101862.20
2018-07-07T18:53:48.140Z,101860.30
2018-07-07T18:56:15.395Z,101861.63
2018-07-07T18:58:42.354Z,101856.56
2018-07-07T19:01:09.346Z,101857.41
2018-07-07T19:03:36.316Z,101860.45
2018-07-07T19:06:03.357Z,101866.06
2018-07-07T19:08:30.303Z,101872.30
2018-07-07T19:10:57.961Z,101871.97
2018-07-07T19:13:24.988Z,101873.53
2018-07-07T19:15:52.599Z,101877.02
2018-07-07T19:18:19.673Z,101882.08
2018-07-07T19:20:52.473Z,101883.83
2018-07-07T19:23:25.234Z,101880.58
2018-07-07T19:25:58.270Z,101878.74
2018-07-07T19:28:25.271Z,101882.62
2018-07-07T19:30:52.463Z,101880.69
2018-07-07T19:33:25.201Z,101873.28
2018-07-07T19:35:57.859Z,101874.61
2018-07-07T19:38:25.105Z,101875.11
2018-07-07T19:40:52.142Z,101877.67
2018-07-07T19:43:19.324Z,101868.00
2018-07-07T19:45:46.295Z,101867.29
2018-07-07T19:48:13.599Z,101867.78
2018-07-07T19:50:40.545Z,101867.39
2018-07-07T19:53:07.485Z,101876.53
2018-07-07T19:55:34.424Z,101874.44
2018-07-07T19:58:01.345Z,101875.96
2018-07-07T20:00:28.243Z,101867.00
2018-07-07T20:02:55.136Z,101872.64
2018-07-07T20:05:22.065Z,101873.67
2018-07-07T20:07:49.657Z,101878.16
2018-07-07T20:10:16.720Z,101876.54
2018-07-07T20:12:43.892Z,101881.83
2018-07-07T20:15:10.971Z,101877.97
2018-07-07T20:17:49.585Z,101865.09
2018-07-07T20:20:37.787Z,101885.88
2018-07-07T20:23:06.476Z,101881.08
2018-07-07T20:25:33.435Z,101883.88
2018-07-07T20:28:06.305Z,101882.67
2018-07-07T20:30:34.084Z,101884.14
2018-07-07T20:33:01.238Z,101875.38
2018-07-07T20:35:28.415Z,101878.53
2018-07-07T20:37:55.620Z,101878.05
2018-07-07T20:40:22.736Z,101875.38
2018-07-07T20:42:49.710Z,101877.86
2018-07-07T20:45:16.892Z,101873.95
2018-07-07T20:47:43.856Z,101875.81
2018-07-07T20:50:10.807Z,101876.17
2018-07-07T20:52:37.720Z,101877.63
2018-07-07T20:55:06.236Z,101879.93
2018-07-07T20:57:33.159Z,101880.86
2018-07-07T21:00:00.304Z,101878.84
2018-07-07T21:02:27.196Z,101886.80
2018-07-07T21:04:54.127Z,101886.92
2018-07-07T21:07:21.376Z,101887.09
2018-07-07T21:09:48.310Z,101886.28
2018-07-07T21:12:15.240Z,101886.36
2018-07-07T21:14:42.323Z,101889.10
2018-07-07T21:17:09.529Z,101890.92
2018-07-07T21:19:36.457Z,101886.92
2018-07-07T21:22:03.460Z,101890.92
2018-07-07T21:24:30.473Z,101884.67
2018-07-07T21:26:57.472Z,101889.75
2018-07-07T21:29:24.461Z,101890.83
2018-07-07T21:31:51.389Z,101894.46
2018-07-07T21:34:18.307Z,101895.23
2018-07-07T21:36:45.816Z,101899.63
2018-07-07T21:39:12.963Z,101896.48
2018-07-07T21:41:40.204Z,101895.91
2018-07-07T21:44:07.312Z,101898.16
2018-07-07T21:46:34.309Z,101896.58
2018-07-07T21:49:01.226Z,101893.15
2018-07-07T21:51:28.695Z,101896.58
2018-07-07T21:53:55.810Z,101891.22
2018-07-07T21:56:22.959Z,101889.45
2018-07-07T21:58:54.612Z,101899.24
2018-07-07T22:01:39.021Z,101901.20
2018-07-07T22:04:11.750Z,101893.19
2018-07-07T22:06:44.521Z,101896.03
2018-07-07T22:09:11.765Z,101888.09
2018-07-07T22:11:38.848Z,101886.87
2018-07-07T22:14:05.786Z,101889.02
2018-07-07T22:16:32.714Z,101895.44
2018-07-07T22:18:59.613Z,101898.44
2018-07-07T22:21:38.276Z,101897.21
2018-07-07T22:24:05.203Z,101897.32
2018-07-07T22:26:32.121Z,101890.16
2018-07-07T22:28:59.045Z,101891.04
2018-07-07T22:31:25.987Z,101888.97
2018-07-07T22:33:52.897Z,101891.29
2018-07-07T22:36:25.800Z,101894.84
2018-07-07T22:38:54.831Z,101893.65
2018-07-07T22:41:32.071Z,101891.57
2018-07-07T22:43:59.380Z,101899.55
2018-07-07T22:46:27.118Z,101896.45
2018-07-07T22:48:54.482Z,101888.91
2018-07-07T22:51:21.446Z,101892.59
2018-07-07T22:53:48.524Z,101889.97
2018-07-07T22:56:15.436Z,101900.64
2018-07-07T22:58:42.728Z,101897.16
2018-07-07T23:01:09.822Z,101891.27
2018-07-07T23:03:36.746Z,101897.27
2018-07-07T23:06:03.692Z,101896.45
2018-07-07T23:08:31.236Z,101900.50
2018-07-07T23:10:58.160Z,101905.24
2018-07-07T23:13:25.252Z,101903.53
2018-07-07T23:15:52.241Z,101893.92
2018-07-07T23:18:19.671Z,101901.80
2018-07-07T23:20:46.777Z,101898.00
2018-07-07T23:23:13.777Z,101894.91
2018-07-07T23:25:40.723Z,101890.06
2018-07-07T23:28:07.651Z,101894.94
2018-07-07T23:30:34.567Z,101893.70
2018-07-07T23:33:01.514Z,101890.98
2018-07-07T23:35:28.420Z,101893.84
2018-07-07T23:37:55.336Z,101894.34
2018-07-07T23:40:22.249Z,101883.71
2018-07-07T23:42:49.166Z,101886.84
2018-07-07T23:45:16.409Z,101878.02
2018-07-07T23:47:43.938Z,101880.36
2018-07-07T23:50:11.184Z,101883.36
2018-07-07T23:52:38.098Z,101883.08
2018-07-07T23:55:11.469Z,101888.36
2018-07-07T23:57:49.152Z,101887.00
